Time;durP1;ratioP1;P1;durP2;ratioP2;P2;SDS_P1;SDS_P2;PMS_P1;PMS_P2;Temp;Humidity;BMP_temperature;BMP_pressure;BME280_temperature;BME280_humidity;BME280_pressure;Samples;Min_cycle;Max_cycle;Signal;HPM_P1;HPM_P2
2023/05/27 00:00:44;;;;;;;;;;;5.40;99.90;;;;;;5102608;28;20352;-87
2023/05/27 00:03:10;;;;;;;;;;;5.50;99.90;;;;;;5099994;28;19924;-82
2023/05/27 00:05:36;;;;;;;;;;;5.40;99.90;;;;;;5102128;28;20007;-83
2023/05/27 00:08:01;;;;;;;;;;;5.30;99.90;;;;;;5085504;28;20037;-82
2023/05/27 00:10:27;;;;;;;;;;;5.20;99.90;;;;;;5107239;28;19935;-83
2023/05/27 00:12:52;;;;;;;;;;;5.20;99.90;;;;;;5107382;28;20379;-82
2023/05/27 00:15:18;;;;;;;;;;;5.20;99.90;;;;;;5108472;28;20304;-82
2023/05/27 00:17:43;;;;;;;;;;;5.20;99.90;;;;;;5104269;28;19928;-82
2023/05/27 00:20:10;;;;;;;;;;;5.20;99.90;;;;;;5106140;28;19924;-82
2023/05/27 00:22:36;;;;;;;;;;;5.10;99.90;;;;;;5108752;28;19924;-82
2023/05/27 00:25:02;;;;;;;;;;;5.10;99.90;;;;;;5095105;28;19980;-85
2023/05/27 00:27:27;;;;;;;;;;;5.10;99.90;;;;;;5107023;28;19928;-82
2023/05/27 00:29:53;;;;;;;;;;;5.10;99.90;;;;;;5086289;28;20011;-82
2023/05/27 00:32:19;;;;;;;;;;;5.00;99.90;;;;;;5083014;28;20353;-82
2023/05/27 00:34:44;;;;;;;;;;;5.00;99.90;;;;;;5103629;28;19928;-82
2023/05/27 00:37:10;;;;;;;;;;;4.90;99.90;;;;;;5125355;27;19956;-82
2023/05/27 00:39:35;;;;;;;;;;;4.80;99.90;;;;;;5094419;28;19946;-82
2023/05/27 00:42:01;;;;;;;;;;;4.80;99.90;;;;;;5090509;28;20411;-82
2023/05/27 00:44:27;;;;;;;;;;;4.80;1.00;;;;;;5092864;28;20011;-82
2023/05/27 00:46:53;;;;;;;;;;;4.80;1.00;;;;;;5110466;28;19931;-84
2023/05/27 00:49:19;;;;;;;;;;;4.90;1.00;;;;;;5111093;28;19927;-83
2023/05/27 00:51:45;;;;;;;;;;;4.80;1.00;;;;;;5108181;28;19924;-82
2023/05/27 00:54:11;;;;;;;;;;;4.80;1.00;;;;;;5092246;28;19935;-83
2023/05/27 00:56:37;;;;;;;;;;;4.80;1.00;;;;;;5108266;28;19935;-82
2023/05/27 00:59:03;;;;;;;;;;;4.80;1.00;;;;;;5108086;28;19928;-84
2023/05/27 01:01:28;;;;;;;;;;;4.70;1.00;;;;;;5108150;28;19978;-82
2023/05/27 01:03:55;;;;;;;;;;;4.70;99.90;;;;;;5109658;27;19924;-85
2023/05/27 01:06:25;;;;;;;;;;;4.70;99.90;;;;;;5089180;28;20440;-82
2023/05/27 01:09:04;;;;;;;;;;;4.60;1.00;;;;;;5108346;28;19928;-84
2023/05/27 01:11:36;;;;;;;;;;;4.60;1.00;;;;;;5107732;28;20200;-82
2023/05/27 01:14:04;;;;;;;;;;;4.60;1.00;;;;;;5109284;28;19924;-82
2023/05/27 01:16:30;;;;;;;;;;;4.50;99.90;;;;;;5103058;28;19938;-83
2023/05/27 01:18:59;;;;;;;;;;;4.40;99.90;;;;;;5092253;28;19931;-87
2023/05/27 01:21:28;;;;;;;;;;;4.40;99.90;;;;;;5109463;28;20044;-83
2023/05/27 01:23:54;;;;;;;;;;;4.30;1.00;;;;;;5105960;28;19970;-80
2023/05/27 01:26:20;;;;;;;;;;;4.40;1.00;;;;;;5109289;28;19959;-82
2023/05/27 01:28:45;;;;;;;;;;;4.40;1.00;;;;;;5110272;28;20004;-81
2023/05/27 01:31:27;;;;;;;;;;;4.30;1.00;;;;;;5105808;28;19974;-80
2023/05/27 01:34:01;;;;;;;;;;;4.30;1.00;;;;;;5109622;28;19927;-81
2023/05/27 01:36:30;;;;;;;;;;;4.30;1.00;;;;;;5105165;28;20368;-81
2023/05/27 01:38:56;;;;;;;;;;;4.30;1.00;;;;;;5092191;28;19924;-81
2023/05/27 01:41:22;;;;;;;;;;;4.30;1.00;;;;;;5108834;28;19934;-82
2023/05/27 01:43:49;;;;;;;;;;;4.20;1.00;;;;;;5089623;28;19974;-84
2023/05/27 01:46:15;;;;;;;;;;;4.20;1.00;;;;;;5107020;28;20334;-81
2023/05/27 01:48:40;;;;;;;;;;;4.20;1.00;;;;;;5091307;28;19928;-81
2023/05/27 01:51:06;;;;;;;;;;;4.20;1.00;;;;;;5109315;28;20548;-82
2023/05/27 01:53:32;;;;;;;;;;;4.20;1.00;;;;;;5107487;28;20085;-82
2023/05/27 01:55:57;;;;;;;;;;;4.20;1.00;;;;;;5106238;28;19949;-82
2023/05/27 01:58:23;;;;;;;;;;;4.20;1.00;;;;;;5106351;28;20334;-81
2023/05/27 02:00:48;;;;;;;;;;;4.20;1.00;;;;;;5108306;28;19935;-82
2023/05/27 02:03:14;;;;;;;;;;;4.20;1.00;;;;;;5103043;28;19955;-80
2023/05/27 02:05:40;;;;;;;;;;;4.10;1.00;;;;;;5106601;28;20424;-81
2023/05/27 02:08:05;;;;;;;;;;;4.10;1.00;;;;;;5105057;28;19932;-81
2023/05/27 02:10:31;;;;;;;;;;;4.10;1.00;;;;;;5072676;28;19971;-80
2023/05/27 02:12:56;;;;;;;;;;;4.10;1.00;;;;;;5108956;28;20005;-80
2023/05/27 02:15:23;;;;;;;;;;;4.20;1.00;;;;;;5124764;27;19931;-81
2023/05/27 02:17:54;;;;;;;;;;;4.20;1.00;;;;;;5090289;28;19928;-81
2023/05/27 02:20:21;;;;;;;;;;;4.20;1.00;;;;;;5098593;28;19942;-81
2023/05/27 02:22:46;;;;;;;;;;;4.20;1.00;;;;;;5106852;28;20022;-82
2023/05/27 02:25:12;;;;;;;;;;;4.30;1.00;;;;;;5102498;28;20362;-82
2023/05/27 02:27:38;;;;;;;;;;;4.40;1.00;;;;;;5107069;28;19931;-81
2023/05/27 02:30:03;;;;;;;;;;;4.40;1.00;;;;;;5102034;28;20001;-82
2023/05/27 02:32:30;;;;;;;;;;;4.50;1.00;;;;;;5099164;28;19927;-81
2023/05/27 02:34:57;;;;;;;;;;;4.50;1.00;;;;;;5108236;28;19946;-80
2023/05/27 02:37:24;;;;;;;;;;;4.60;1.00;;;;;;5109325;28;20613;-80
2023/05/27 02:39:53;;;;;;;;;;;4.60;1.00;;;;;;5088504;28;19946;-80
2023/05/27 02:42:18;;;;;;;;;;;4.60;1.00;;;;;;5089139;28;19938;-81
2023/05/27 02:44:44;;;;;;;;;;;4.50;1.00;;;;;;5104237;28;19928;-83
2023/05/27 02:47:10;;;;;;;;;;;4.50;1.00;;;;;;5108260;28;19923;-82
2023/05/27 02:49:36;;;;;;;;;;;4.50;1.00;;;;;;5089907;28;20018;-81
2023/05/27 02:52:02;;;;;;;;;;;4.50;1.00;;;;;;5108256;28;20011;-81
2023/05/27 02:54:27;;;;;;;;;;;4.50;1.00;;;;;;5100011;28;20367;-82
2023/05/27 02:56:53;;;;;;;;;;;4.60;1.00;;;;;;5107965;28;20368;-82
2023/05/27 02:59:18;;;;;;;;;;;4.60;1.00;;;;;;5124273;27;20355;-81
2023/05/27 03:01:44;;;;;;;;;;;4.70;1.00;;;;;;5105717;28;19963;-83
2023/05/27 03:04:10;;;;;;;;;;;4.90;1.00;;;;;;5106682;28;19924;-87
2023/05/27 03:06:36;;;;;;;;;;;5.00;1.00;;;;;;5107605;28;19966;-82
2023/05/27 03:09:02;;;;;;;;;;;5.10;1.00;;;;;;5102931;28;19975;-81
2023/05/27 03:11:28;;;;;;;;;;;5.20;1.00;;;;;;5102668;28;19928;-82
2023/05/27 03:13:53;;;;;;;;;;;5.30;1.00;;;;;;5100007;28;19981;-81
2023/05/27 03:16:19;;;;;;;;;;;5.30;1.00;;;;;;5090358;28;19970;-83
2023/05/27 03:18:45;;;;;;;;;;;5.30;1.00;;;;;;5088729;28;19924;-81
2023/05/27 03:21:11;;;;;;;;;;;5.20;1.00;;;;;;5086287;28;19923;-81
2023/05/27 03:23:37;;;;;;;;;;;5.20;1.00;;;;;;5104287;28;19989;-83
2023/05/27 03:26:02;;;;;;;;;;;5.10;1.00;;;;;;5102862;28;19928;-84
2023/05/27 03:28:28;;;;;;;;;;;5.10;1.00;;;;;;5090514;28;19927;-82
2023/05/27 03:30:56;;;;;;;;;;;5.00;1.00;;;;;;5090619;28;19931;-80
2023/05/27 03:33:25;;;;;;;;;;;5.10;1.00;;;;;;5087450;28;19932;-81
2023/05/27 03:35:51;;;;;;;;;;;5.10;1.00;;;;;;5100671;28;19932;-82
2023/05/27 03:38:16;;;;;;;;;;;5.20;1.00;;;;;;5106945;28;19928;-84
2023/05/27 03:40:42;;;;;;;;;;;5.10;1.00;;;;;;5107925;28;19927;-85
2023/05/27 03:43:07;;;;;;;;;;;5.20;1.00;;;;;;5123334;27;20304;-82
2023/05/27 03:45:33;;;;;;;;;;;5.20;1.00;;;;;;5103519;28;19927;-79
2023/05/27 03:47:59;;;;;;;;;;;5.30;1.00;;;;;;5069656;28;19928;-82
2023/05/27 03:50:24;;;;;;;;;;;5.30;1.00;;;;;;5088242;28;19932;-81
2023/05/27 03:52:50;;;;;;;;;;;5.30;1.00;;;;;;5107945;28;19927;-81
2023/05/27 03:55:16;;;;;;;;;;;5.30;1.00;;;;;;5110200;28;19966;-81
2023/05/27 03:57:42;;;;;;;;;;;5.30;1.00;;;;;;5108856;28;19928;-85
2023/05/27 04:00:08;;;;;;;;;;;5.20;1.00;;;;;;5109335;28;19938;-84
2023/05/27 04:02:34;;;;;;;;;;;5.10;1.00;;;;;;5107379;28;20736;-81
2023/05/27 04:05:00;;;;;;;;;;;5.10;1.00;;;;;;5110653;28;19930;-84
2023/05/27 04:07:26;;;;;;;;;;;5.10;1.00;;;;;;5107824;28;19931;-81
2023/05/27 04:09:52;;;;;;;;;;;5.10;1.00;;;;;;5099623;28;19927;-81
2023/05/27 04:12:18;;;;;;;;;;;5.10;1.00;;;;;;5100559;28;19928;-85
2023/05/27 04:14:44;;;;;;;;;;;5.20;43.50;;;;;;5124297;27;19928;-81
2023/05/27 04:17:09;;;;;;;;;;;5.30;96.30;;;;;;5112162;28;20307;-81
2023/05/27 04:19:35;;;;;;;;;;;5.40;99.90;;;;;;5092472;28;19993;-81
2023/05/27 04:22:00;;;;;;;;;;;5.60;99.90;;;;;;5111439;28;19924;-80
2023/05/27 04:24:26;;;;;;;;;;;5.70;99.90;;;;;;5108160;28;20308;-81
2023/05/27 04:26:51;;;;;;;;;;;5.80;99.90;;;;;;5101373;28;19928;-82
2023/05/27 04:29:17;;;;;;;;;;;6.00;99.90;;;;;;5107233;28;20158;-81
2023/05/27 04:31:44;;;;;;;;;;;6.10;99.90;;;;;;5107710;28;20001;-82
2023/05/27 04:34:10;;;;;;;;;;;6.30;99.90;;;;;;5099890;28;20457;-81
2023/05/27 04:36:35;;;;;;;;;;;6.40;99.90;;;;;;5097895;28;19923;-81
2023/05/27 04:39:01;;;;;;;;;;;6.50;99.90;;;;;;5095541;28;19923;-81
2023/05/27 04:41:28;;;;;;;;;;;6.70;99.90;;;;;;5092089;28;19928;-83
2023/05/27 04:43:54;;;;;;;;;;;6.80;99.90;;;;;;5104974;28;20002;-81
2023/05/27 04:46:20;;;;;;;;;;;7.00;99.90;;;;;;5120590;27;19928;-82
2023/05/27 04:48:46;;;;;;;;;;;7.20;99.90;;;;;;5092247;28;19932;-81
2023/05/27 04:51:15;;;;;;;;;;;7.30;99.90;;;;;;5110236;28;19934;-81
2023/05/27 04:53:41;;;;;;;;;;;7.40;94.10;;;;;;5103753;28;20000;-81
2023/05/27 04:56:08;;;;;;;;;;;7.50;59.00;;;;;;5109140;28;19928;-82
2023/05/27 04:58:34;;;;;;;;;;;7.60;51.50;;;;;;5110366;28;19931;-81
2023/05/27 05:00:59;;;;;;;;;;;7.70;82.80;;;;;;5110855;28;19927;-82
2023/05/27 05:03:39;;;;;;;;;;;7.70;79.10;;;;;;5109185;28;19924;-81
2023/05/27 05:06:05;;;;;;;;;;;7.80;60.60;;;;;;5093358;28;19923;-81
2023/05/27 05:08:31;;;;;;;;;;;7.90;75.50;;;;;;5109458;28;19953;-81
2023/05/27 05:10:56;;;;;;;;;;;8.00;19.10;;;;;;5112924;28;20407;-82
2023/05/27 05:13:22;;;;;;;;;;;8.00;4.80;;;;;;5076030;28;19977;-81
2023/05/27 05:15:47;;;;;;;;;;;8.10;9.00;;;;;;5109630;28;19934;-82
2023/05/27 05:18:13;;;;;;;;;;;8.20;1.00;;;;;;5109278;28;19924;-82
2023/05/27 05:20:39;;;;;;;;;;;8.30;1.00;;;;;;5101812;28;19977;-81
2023/05/27 05:23:06;;;;;;;;;;;8.40;1.00;;;;;;5091126;28;20360;-81
2023/05/27 05:25:37;;;;;;;;;;;8.50;1.00;;;;;;5102364;28;19959;-82
2023/05/27 05:28:06;;;;;;;;;;;8.50;1.00;;;;;;5100497;28;19928;-83
2023/05/27 05:30:32;;;;;;;;;;;8.40;1.00;;;;;;5108542;28;19924;-85
2023/05/27 05:32:58;;;;;;;;;;;8.40;1.00;;;;;;5109428;28;20490;-80
2023/05/27 05:35:23;;;;;;;;;;;8.50;1.00;;;;;;5094022;28;19924;-81
2023/05/27 05:37:49;;;;;;;;;;;8.50;1.00;;;;;;5102493;28;20014;-83
2023/05/27 05:40:15;;;;;;;;;;;8.60;1.00;;;;;;5091026;28;19935;-81
2023/05/27 05:42:40;;;;;;;;;;;8.60;1.00;;;;;;5099575;28;19924;-81
2023/05/27 05:45:06;;;;;;;;;;;8.70;1.00;;;;;;5097529;28;19949;-80
2023/05/27 05:47:32;;;;;;;;;;;8.70;1.00;;;;;;5105309;28;19934;-85
2023/05/27 05:49:57;;;;;;;;;;;8.70;1.00;;;;;;5107330;28;20019;-82
2023/05/27 05:52:23;;;;;;;;;;;8.90;1.00;;;;;;5107384;28;21138;-82
2023/05/27 05:54:49;;;;;;;;;;;8.80;1.00;;;;;;5100915;28;19943;-83
2023/05/27 05:57:15;;;;;;;;;;;8.90;1.00;;;;;;5103532;28;20517;-83
2023/05/27 05:59:41;;;;;;;;;;;8.90;1.00;;;;;;5109617;28;19950;-82
2023/05/27 06:02:07;;;;;;;;;;;9.00;1.00;;;;;;5110654;28;19928;-83
2023/05/27 06:04:32;;;;;;;;;;;9.10;1.00;;;;;;5090193;28;20618;-83
2023/05/27 06:06:58;;;;;;;;;;;9.10;1.00;;;;;;5087829;28;19977;-84
2023/05/27 06:09:25;;;;;;;;;;;9.20;1.00;;;;;;5087866;27;20296;-82
2023/05/27 06:11:51;;;;;;;;;;;9.30;1.00;;;;;;5105164;27;20312;-83
2023/05/27 06:14:17;;;;;;;;;;;9.40;1.00;;;;;;5098600;27;19928;-84
2023/05/27 06:16:43;;;;;;;;;;;9.60;1.00;;;;;;5099771;27;19968;-82
2023/05/27 06:19:08;;;;;;;;;;;9.80;1.00;;;;;;5081714;28;20003;-83
2023/05/27 06:21:34;;;;;;;;;;;10.10;1.00;;;;;;5102924;28;19981;-82
2023/05/27 06:24:00;;;;;;;;;;;10.30;1.00;;;;;;5100280;27;21911;-84
2023/05/27 06:26:27;;;;;;;;;;;10.60;1.00;;;;;;5105163;27;19932;-83
2023/05/27 06:28:52;;;;;;;;;;;10.80;1.00;;;;;;5122724;27;20341;-82
2023/05/27 06:31:18;;;;;;;;;;;11.00;1.00;;;;;;5111890;27;20011;-84
2023/05/27 06:33:44;;;;;;;;;;;11.20;1.00;;;;;;5092925;28;19932;-84
2023/05/27 06:36:09;;;;;;;;;;;11.50;99.90;;;;;;5117513;27;19971;-83
2023/05/27 06:38:36;;;;;;;;;;;11.70;99.90;;;;;;5107283;28;20331;-84
2023/05/27 06:41:02;;;;;;;;;;;11.90;99.90;;;;;;5106818;28;19934;-79
2023/05/27 06:43:27;;;;;;;;;;;12.10;99.90;;;;;;5113101;27;19924;-79
2023/05/27 06:45:53;;;;;;;;;;;12.20;99.90;;;;;;5117086;27;19923;-78
2023/05/27 06:48:19;;;;;;;;;;;12.40;99.90;;;;;;5109658;28;20024;-79
2023/05/27 06:50:44;;;;;;;;;;;12.60;99.90;;;;;;5106925;27;19949;-85
2023/05/27 06:53:10;;;;;;;;;;;12.80;99.90;;;;;;5108336;28;19991;-83
2023/05/27 06:55:36;;;;;;;;;;;13.00;99.90;;;;;;5109107;28;19930;-83
2023/05/27 06:58:01;;;;;;;;;;;13.20;99.90;;;;;;5107146;28;19925;-83
2023/05/27 07:00:27;;;;;;;;;;;13.50;99.90;;;;;;5084525;28;20331;-86
2023/05/27 07:02:53;;;;;;;;;;;13.70;99.90;;;;;;5074754;28;19932;-82
2023/05/27 07:05:18;;;;;;;;;;;14.00;99.90;;;;;;5110554;28;19927;-83
2023/05/27 07:07:44;;;;;;;;;;;14.30;99.90;;;;;;5103369;28;19927;-86
2023/05/27 07:10:09;;;;;;;;;;;14.50;99.90;;;;;;5104201;28;19923;-83
2023/05/27 07:12:35;;;;;;;;;;;14.70;99.90;;;;;;5093825;28;20053;-82
2023/05/27 07:15:00;;;;;;;;;;;14.80;94.40;;;;;;5074736;28;19924;-83
2023/05/27 07:17:26;;;;;;;;;;;15.00;85.80;;;;;;5109487;28;20069;-83
2023/05/27 07:19:52;;;;;;;;;;;15.40;77.10;;;;;;5099489;28;19928;-82
2023/05/27 07:22:17;;;;;;;;;;;15.70;47.90;;;;;;5093030;28;19927;-82
2023/05/27 07:24:43;;;;;;;;;;;15.90;17.60;;;;;;5107331;28;19980;-83
2023/05/27 07:27:09;;;;;;;;;;;16.10;10.20;;;;;;5103219;28;19927;-83
2023/05/27 07:29:34;;;;;;;;;;;16.20;1.00;;;;;;5076288;28;19935;-83
2023/05/27 07:32:00;;;;;;;;;;;16.30;1.00;;;;;;5109112;28;19982;-82
2023/05/27 07:34:25;;;;;;;;;;;16.40;1.00;;;;;;5103926;28;19931;-83
2023/05/27 07:36:51;;;;;;;;;;;16.50;1.00;;;;;;5097581;28;19989;-83
2023/05/27 07:39:17;;;;;;;;;;;16.70;1.00;;;;;;5109661;28;19973;-84
2023/05/27 07:41:42;;;;;;;;;;;17.00;1.00;;;;;;5092631;28;19951;-84
2023/05/27 07:44:08;;;;;;;;;;;17.20;1.00;;;;;;5109609;28;19953;-83
2023/05/27 07:46:33;;;;;;;;;;;17.50;1.00;;;;;;5094768;28;19924;-83
2023/05/27 07:48:59;;;;;;;;;;;17.80;1.00;;;;;;5101844;28;20019;-83
2023/05/27 07:51:25;;;;;;;;;;;18.00;1.00;;;;;;5109838;28;19923;-82
2023/05/27 07:53:51;;;;;;;;;;;18.20;1.00;;;;;;5109112;28;19969;-86
2023/05/27 07:56:16;;;;;;;;;;;18.00;1.00;;;;;;5108041;28;19971;-83
2023/05/27 07:58:42;;;;;;;;;;;18.00;1.00;;;;;;5086516;28;19985;-82
2023/05/27 08:01:07;;;;;;;;;;;18.30;1.00;;;;;;5091694;28;19924;-83
2023/05/27 08:03:33;;;;;;;;;;;18.60;1.00;;;;;;5106285;28;19966;-81
2023/05/27 08:05:59;;;;;;;;;;;18.90;1.00;;;;;;5121028;28;19931;-83
2023/05/27 08:08:24;;;;;;;;;;;19.10;1.00;;;;;;5073213;28;20338;-84
2023/05/27 08:10:51;;;;;;;;;;;19.20;1.00;;;;;;5108487;28;20014;-83
2023/05/27 08:13:17;;;;;;;;;;;19.30;1.00;;;;;;5105692;28;19924;-85
2023/05/27 08:15:42;;;;;;;;;;;19.50;1.00;;;;;;5105802;28;20024;-83
2023/05/27 08:18:08;;;;;;;;;;;19.70;1.00;;;;;;5092267;28;19938;-86
2023/05/27 08:20:33;;;;;;;;;;;20.00;1.00;;;;;;5070721;28;19930;-85
2023/05/27 08:22:59;;;;;;;;;;;20.30;1.00;;;;;;5105976;28;20014;-84
2023/05/27 08:25:24;;;;;;;;;;;20.50;1.00;;;;;;5088755;28;19928;-84
2023/05/27 08:27:51;;;;;;;;;;;20.80;1.00;;;;;;5108555;28;19924;-84
2023/05/27 08:30:17;;;;;;;;;;;21.00;1.00;;;;;;5105684;28;19938;-83
2023/05/27 08:32:43;;;;;;;;;;;20.70;1.00;;;;;;5107514;28;20022;-83
2023/05/27 08:35:10;;;;;;;;;;;20.30;1.00;;;;;;5086555;28;20494;-83
2023/05/27 08:37:35;;;;;;;;;;;20.60;1.00;;;;;;5106435;28;19928;-80
2023/05/27 08:40:01;;;;;;;;;;;20.90;1.00;;;;;;5105925;28;19977;-82
2023/05/27 08:42:27;;;;;;;;;;;21.00;1.00;;;;;;5090908;28;20020;-82
2023/05/27 08:44:52;;;;;;;;;;;21.40;1.00;;;;;;5102007;28;20064;-82
2023/05/27 08:47:19;;;;;;;;;;;22.00;1.00;;;;;;5110802;28;20000;-83
2023/05/27 08:49:44;;;;;;;;;;;22.50;1.00;;;;;;5109253;28;20277;-82
2023/05/27 08:52:11;;;;;;;;;;;23.00;1.00;;;;;;5106810;28;19923;-83
2023/05/27 08:54:37;;;;;;;;;;;23.50;1.00;;;;;;5111125;28;19945;-83
2023/05/27 08:57:07;;;;;;;;;;;23.90;1.00;;;;;;5110521;28;19974;-83
2023/05/27 08:59:33;;;;;;;;;;;24.30;1.00;;;;;;5107876;28;19938;-83
2023/05/27 09:01:59;;;;;;;;;;;24.60;1.00;;;;;;5106934;28;20334;-85
2023/05/27 09:04:25;;;;;;;;;;;24.80;1.00;;;;;;5089676;28;19942;-82
2023/05/27 09:06:50;;;;;;;;;;;25.20;1.00;;;;;;5106037;28;19928;-83
2023/05/27 09:09:18;;;;;;;;;;;25.40;1.00;;;;;;5109731;28;19924;-82
2023/05/27 09:11:44;;;;;;;;;;;25.40;1.00;;;;;;5111409;28;20103;-82
2023/05/27 09:14:22;;;;;;;;;;;25.70;1.00;;;;;;5104245;28;19954;-83
2023/05/27 09:16:48;;;;;;;;;;;25.90;1.00;;;;;;5108511;28;19928;-83
2023/05/27 09:19:14;;;;;;;;;;;26.20;1.00;;;;;;5110875;28;20481;-82
2023/05/27 09:21:40;;;;;;;;;;;26.40;1.00;;;;;;5092147;28;20285;-84
2023/05/27 09:24:06;;;;;;;;;;;26.50;1.00;;;;;;5102430;28;19930;-83
2023/05/27 09:26:33;;;;;;;;;;;26.60;1.00;;;;;;5108437;28;19932;-83
2023/05/27 09:29:02;;;;;;;;;;;26.90;1.00;;;;;;5108902;28;20014;-83
2023/05/27 09:31:28;;;;;;;;;;;27.10;1.00;;;;;;5107175;28;19950;-82
2023/05/27 09:33:53;;;;;;;;;;;27.00;1.00;;;;;;5109228;28;20646;-83
2023/05/27 09:36:20;;;;;;;;;;;26.90;1.00;;;;;;5109737;28;19988;-83
2023/05/27 09:38:46;;;;;;;;;;;26.90;1.00;;;;;;5111084;28;20019;-82
2023/05/27 09:41:12;;;;;;;;;;;27.10;1.00;;;;;;5122889;27;20010;-78
2023/05/27 09:43:37;;;;;;;;;;;27.40;1.00;;;;;;5107882;28;20356;-82
2023/05/27 09:46:07;;;;;;;;;;;27.90;1.00;;;;;;5106608;28;19935;-84
2023/05/27 09:48:32;;;;;;;;;;;28.30;1.00;;;;;;5105970;28;19977;-83
2023/05/27 09:51:03;;;;;;;;;;;28.50;1.00;;;;;;5105484;28;20337;-84
2023/05/27 09:53:28;;;;;;;;;;;28.90;1.00;;;;;;5110321;28;19935;-84
2023/05/27 09:55:54;;;;;;;;;;;29.10;1.00;;;;;;5110334;28;20300;-84
2023/05/27 09:58:20;;;;;;;;;;;29.30;1.00;;;;;;5093134;28;19928;-84
2023/05/27 10:00:47;;;;;;;;;;;29.50;1.00;;;;;;5110106;28;20002;-84
2023/05/27 10:03:13;;;;;;;;;;;29.50;1.00;;;;;;5091059;28;20383;-84
2023/05/27 10:05:40;;;;;;;;;;;29.80;1.00;;;;;;5109446;28;19934;-83
2023/05/27 10:08:06;;;;;;;;;;;30.10;1.00;;;;;;5091504;28;19930;-83
2023/05/27 10:10:32;;;;;;;;;;;30.30;1.00;;;;;;5107805;28;19927;-84
2023/05/27 10:12:58;;;;;;;;;;;30.60;1.00;;;;;;5093139;28;19931;-83
2023/05/27 10:15:28;;;;;;;;;;;30.80;1.00;;;;;;5103623;28;19978;-83
2023/05/27 10:17:55;;;;;;;;;;;30.50;1.00;;;;;;5094531;28;19936;-83
2023/05/27 10:20:30;;;;;;;;;;;30.50;1.00;;;;;;5105149;28;20018;-83
2023/05/27 10:22:57;;;;;;;;;;;30.80;1.00;;;;;;5107946;28;19928;-84
2023/05/27 10:25:23;;;;;;;;;;;31.10;1.00;;;;;;5106473;28;20019;-83
2023/05/27 10:27:48;;;;;;;;;;;31.30;1.00;;;;;;5102549;28;19989;-84
2023/05/27 10:30:15;;;;;;;;;;;31.30;1.00;;;;;;5103810;28;19928;-84
2023/05/27 10:32:50;;;;;;;;;;;31.40;1.00;;;;;;5102238;28;19985;-84
2023/05/27 10:35:16;;;;;;;;;;;31.50;1.00;;;;;;5113073;27;19965;-83
2023/05/27 10:37:42;;;;;;;;;;;31.50;1.00;;;;;;5113618;27;20654;-83
2023/05/27 10:40:08;;;;;;;;;;;31.30;1.00;;;;;;5108834;28;19934;-83
2023/05/27 10:42:33;;;;;;;;;;;31.50;1.00;;;;;;5107278;28;19967;-86
2023/05/27 10:45:07;;;;;;;;;;;31.60;1.00;;;;;;5093616;27;20018;-86
2023/05/27 10:47:36;;;;;;;;;;;31.90;1.00;;;;;;5111624;27;19930;-86
2023/05/27 10:50:12;;;;;;;;;;;32.20;1.00;;;;;;5108619;28;19928;-85
2023/05/27 10:52:39;;;;;;;;;;;32.30;1.00;;;;;;5083785;28;19931;-86
2023/05/27 10:55:06;;;;;;;;;;;32.40;1.00;;;;;;5104284;28;20347;-86
2023/05/27 10:57:32;;;;;;;;;;;32.40;1.00;;;;;;5097863;28;19924;-85
2023/05/27 11:00:00;;;;;;;;;;;32.40;1.00;;;;;;5102518;28;20075;-86
2023/05/27 11:02:31;;;;;;;;;;;32.70;1.00;;;;;;5102328;28;20007;-84
2023/05/27 11:04:56;;;;;;;;;;;33.10;1.00;;;;;;5103601;28;19934;-87
2023/05/27 11:07:24;;;;;;;;;;;33.40;1.00;;;;;;5089304;28;19927;-84
2023/05/27 11:09:53;;;;;;;;;;;33.50;1.00;;;;;;5108814;28;19924;-82
2023/05/27 11:12:23;;;;;;;;;;;33.30;1.00;;;;;;5108030;28;20023;-89
2023/05/27 11:14:53;;;;;;;;;;;33.00;1.00;;;;;;5103530;28;20395;-83
2023/05/27 11:17:19;;;;;;;;;;;33.20;1.00;;;;;;5110677;28;20246;-85
2023/05/27 11:19:45;;;;;;;;;;;33.10;1.00;;;;;;5093696;28;20022;-81
2023/05/27 11:22:11;;;;;;;;;;;33.00;1.00;;;;;;5109917;28;20011;-81
2023/05/27 11:24:37;;;;;;;;;;;33.00;1.00;;;;;;5109788;28;19928;-82
2023/05/27 11:27:10;;;;;;;;;;;33.00;1.00;;;;;;5102654;28;19928;-82
2023/05/27 11:29:39;;;;;;;;;;;33.00;1.00;;;;;;5107489;28;19924;-82
2023/05/27 11:32:05;;;;;;;;;;;32.80;1.00;;;;;;5106847;28;19932;-85
2023/05/27 11:34:33;;;;;;;;;;;32.80;1.00;;;;;;5101158;28;19927;-82
2023/05/27 11:37:03;;;;;;;;;;;32.70;1.00;;;;;;5103318;28;19927;-82
2023/05/27 11:39:30;;;;;;;;;;;32.80;1.00;;;;;;5102732;28;19958;-82
2023/05/27 11:41:56;;;;;;;;;;;33.00;1.00;;;;;;5083274;28;19974;-83
2023/05/27 11:44:23;;;;;;;;;;;33.30;1.00;;;;;;5108370;28;19963;-87
2023/05/27 11:46:49;;;;;;;;;;;33.40;1.00;;;;;;5107901;28;20080;-83
2023/05/27 11:49:16;;;;;;;;;;;33.00;1.00;;;;;;5107362;28;19931;-83
2023/05/27 11:51:44;;;;;;;;;;;32.80;1.00;;;;;;5100816;28;20382;-82
2023/05/27 11:54:20;;;;;;;;;;;32.90;1.00;;;;;;5107073;28;19927;-85
2023/05/27 11:56:47;;;;;;;;;;;33.30;1.00;;;;;;5103535;28;19930;-82
2023/05/27 11:59:13;;;;;;;;;;;33.70;1.00;;;;;;5087796;28;20368;-82
2023/05/27 12:01:40;;;;;;;;;;;34.10;1.00;;;;;;5098928;28;19967;-83
2023/05/27 12:04:06;;;;;;;;;;;34.00;1.00;;;;;;5110882;28;19970;-83
2023/05/27 12:06:32;;;;;;;;;;;34.10;1.00;;;;;;5081078;28;19960;-83
2023/05/27 12:08:57;;;;;;;;;;;34.00;1.00;;;;;;5103850;28;19971;-83
2023/05/27 12:11:23;;;;;;;;;;;34.20;1.00;;;;;;5085542;28;19927;-82
2023/05/27 12:13:48;;;;;;;;;;;34.40;1.00;;;;;;5102929;28;19935;-83
2023/05/27 12:16:14;;;;;;;;;;;34.30;1.00;;;;;;5096128;28;19956;-82
2023/05/27 12:18:41;;;;;;;;;;;34.30;1.00;;;;;;5107436;28;19924;-83
2023/05/27 12:21:07;;;;;;;;;;;34.60;1.00;;;;;;5079390;28;19935;-84
2023/05/27 12:23:33;;;;;;;;;;;34.50;1.00;;;;;;5095743;28;19931;-84
2023/05/27 12:25:59;;;;;;;;;;;34.40;1.00;;;;;;5109598;27;19927;-83
2023/05/27 12:28:25;;;;;;;;;;;34.30;1.00;;;;;;5096244;28;19934;-84
2023/05/27 12:30:51;;;;;;;;;;;34.10;1.00;;;;;;5119397;27;20336;-83
2023/05/27 12:33:17;;;;;;;;;;;33.80;1.00;;;;;;5103693;27;20006;-81
2023/05/27 12:35:42;;;;;;;;;;;33.50;1.00;;;;;;5098117;27;19928;-81
2023/05/27 12:38:08;;;;;;;;;;;33.60;1.00;;;;;;5097245;27;20177;-82
2023/05/27 12:40:34;;;;;;;;;;;33.80;1.00;;;;;;5103573;27;20399;-82
2023/05/27 12:43:00;;;;;;;;;;;34.10;1.00;;;;;;5109182;28;19928;-82
2023/05/27 12:45:25;;;;;;;;;;;34.50;1.00;;;;;;5111370;28;19924;-82
2023/05/27 12:47:51;;;;;;;;;;;35.00;1.00;;;;;;5109730;28;19927;-82
2023/05/27 12:50:17;;;;;;;;;;;35.40;1.00;;;;;;5106899;28;20345;-83
2023/05/27 12:52:46;;;;;;;;;;;35.70;1.00;;;;;;5111612;28;19924;-83
2023/05/27 12:55:12;;;;;;;;;;;35.70;1.00;;;;;;5106807;28;19930;-81
2023/05/27 12:57:38;;;;;;;;;;;35.50;1.00;;;;;;5106776;28;19989;-81
2023/05/27 13:00:04;;;;;;;;;;;35.50;1.00;;;;;;5077585;28;19924;-87
2023/05/27 13:02:30;;;;;;;;;;;35.60;1.00;;;;;;5113168;28;19924;-82
2023/05/27 13:04:56;;;;;;;;;;;35.60;1.00;;;;;;5105344;28;19935;-82
2023/05/27 13:07:22;;;;;;;;;;;35.60;1.00;;;;;;5096685;28;19924;-83
2023/05/27 13:09:47;;;;;;;;;;;35.60;1.00;;;;;;5095044;28;19924;-81
2023/05/27 13:12:13;;;;;;;;;;;35.50;1.00;;;;;;5111132;28;19924;-82
2023/05/27 13:14:39;;;;;;;;;;;35.30;1.00;;;;;;5111955;28;19934;-82
2023/05/27 13:17:06;;;;;;;;;;;35.00;1.00;;;;;;5112545;28;19959;-82
2023/05/27 13:19:31;;;;;;;;;;;35.00;1.00;;;;;;5114305;28;20348;-82
2023/05/27 13:21:57;;;;;;;;;;;35.20;1.00;;;;;;5113893;28;19982;-80
2023/05/27 13:24:23;;;;;;;;;;;35.40;1.00;;;;;;5113004;28;20372;-82
2023/05/27 13:26:51;;;;;;;;;;;35.60;1.00;;;;;;5067088;28;19927;-81
2023/05/27 13:29:17;;;;;;;;;;;35.70;1.00;;;;;;5114214;28;19924;-82
2023/05/27 13:31:45;;;;;;;;;;;35.70;1.00;;;;;;5113598;28;19924;-82
2023/05/27 13:34:11;;;;;;;;;;;35.90;1.00;;;;;;5113590;28;19935;-82
2023/05/27 13:36:36;;;;;;;;;;;36.00;1.00;;;;;;5076680;28;19924;-86
2023/05/27 13:39:02;;;;;;;;;;;35.90;1.00;;;;;;5105681;28;19931;-81
2023/05/27 13:41:28;;;;;;;;;;;35.90;1.00;;;;;;5112996;28;19928;-84
2023/05/27 13:43:53;;;;;;;;;;;36.00;1.00;;;;;;5113124;28;19924;-81
2023/05/27 13:46:19;;;;;;;;;;;36.10;1.00;;;;;;5105705;28;19974;-81
2023/05/27 13:48:44;;;;;;;;;;;35.90;1.00;;;;;;5106184;28;19979;-81
2023/05/27 13:51:10;;;;;;;;;;;35.60;1.00;;;;;;5096450;28;19931;-82
2023/05/27 13:53:36;;;;;;;;;;;35.70;1.00;;;;;;5113316;28;19923;-85
2023/05/27 13:56:01;;;;;;;;;;;35.60;1.00;;;;;;5112464;28;20040;-81
2023/05/27 13:58:28;;;;;;;;;;;35.30;1.00;;;;;;5112076;28;19928;-82
2023/05/27 14:00:54;;;;;;;;;;;34.70;1.00;;;;;;5112182;28;20007;-81
2023/05/27 14:03:20;;;;;;;;;;;34.30;1.00;;;;;;5114056;28;20308;-80
2023/05/27 14:05:45;;;;;;;;;;;34.40;1.00;;;;;;5082603;28;20473;-81
2023/05/27 14:08:11;;;;;;;;;;;34.70;1.00;;;;;;5113265;28;19992;-81
2023/05/27 14:10:36;;;;;;;;;;;34.90;1.00;;;;;;5096148;28;20287;-81
2023/05/27 14:13:02;;;;;;;;;;;35.10;1.00;;;;;;5113126;28;19919;-81
2023/05/27 14:15:29;;;;;;;;;;;35.40;1.00;;;;;;5112357;28;20391;-82
2023/05/27 14:17:55;;;;;;;;;;;35.60;1.00;;;;;;5100887;28;19978;-81
2023/05/27 14:20:20;;;;;;;;;;;35.70;1.00;;;;;;5111040;28;19930;-81
2023/05/27 14:22:46;;;;;;;;;;;35.60;1.00;;;;;;5100121;28;19924;-81
2023/05/27 14:25:12;;;;;;;;;;;35.60;1.00;;;;;;5110360;28;19973;-82
2023/05/27 14:27:40;;;;;;;;;;;35.50;1.00;;;;;;5112846;28;19971;-82